Time;durP1;ratioP1;P1;durP2;ratioP2;P2;SDS_P1;SDS_P2;PMS_P1;PMS_P2;Temp;Humidity;BMP_temperature;BMP_pressure;BME280_temperature;BME280_humidity;BME280_pressure;Samples;Min_cycle;Max_cycle;Signal;HPM_P1;HPM_P2
2021/08/31 00:00:14;;;;;;;25.70;14.63;;;;;;;;;;4358573;32;20164;-75
2021/08/31 00:02:40;;;;;;;30.30;15.27;;;;;;;;;;4358351;32;20167;-75
2021/08/31 00:05:05;;;;;;;32.13;15.65;;;;;;;;;;4358082;32;20229;-75
2021/08/31 00:07:31;;;;;;;30.23;14.85;;;;;;;;;;4358236;32;20476;-75
2021/08/31 00:09:56;;;;;;;26.45;14.65;;;;;;;;;;4346223;33;20247;-76
2021/08/31 00:12:24;;;;;;;25.85;14.90;;;;;;;;;;4357906;33;20159;-75
2021/08/31 00:14:52;;;;;;;25.73;16.27;;;;;;;;;;4357974;32;20163;-75
2021/08/31 00:17:17;;;;;;;28.85;16.15;;;;;;;;;;4345524;33;20223;-75
2021/08/31 00:19:46;;;;;;;27.05;16.15;;;;;;;;;;4345472;33;20229;-76
2021/08/31 00:22:11;;;;;;;25.75;14.55;;;;;;;;;;4357547;32;20190;-75
2021/08/31 00:24:37;;;;;;;25.62;15.15;;;;;;;;;;4357633;33;20512;-76
2021/08/31 00:27:02;;;;;;;25.12;14.87;;;;;;;;;;4357717;32;20159;-75
2021/08/31 00:29:27;;;;;;;26.83;15.68;;;;;;;;;;4358060;33;20615;-76
2021/08/31 00:31:53;;;;;;;25.48;14.95;;;;;;;;;;4345836;33;20190;-75
2021/08/31 00:34:18;;;;;;;25.08;15.48;;;;;;;;;;4357668;32;20230;-76
2021/08/31 00:36:53;;;;;;;30.30;15.65;;;;;;;;;;4357614;33;20160;-76
2021/08/31 00:39:19;;;;;;;29.42;15.50;;;;;;;;;;4357631;32;20171;-75
2021/08/31 00:41:45;;;;;;;27.27;15.68;;;;;;;;;;4357540;33;20155;-75
2021/08/31 00:44:24;;;;;;;30.83;17.00;;;;;;;;;;4357288;33;20242;-75
2021/08/31 00:46:50;;;;;;;30.70;17.30;;;;;;;;;;4357507;32;20171;-75
2021/08/31 00:49:16;;;;;;;29.45;16.02;;;;;;;;;;4357887;32;20199;-76
2021/08/31 00:51:46;;;;;;;29.92;15.10;;;;;;;;;;4357533;32;20190;-75
2021/08/31 00:54:12;;;;;;;30.17;15.85;;;;;;;;;;4345848;33;20167;-75
2021/08/31 00:56:46;;;;;;;27.73;16.25;;;;;;;;;;4357295;33;20586;-75
2021/08/31 00:59:11;;;;;;;28.17;16.05;;;;;;;;;;4357397;33;20565;-75
2021/08/31 01:01:36;;;;;;;27.77;16.85;;;;;;;;;;4357223;33;20190;-75
2021/08/31 01:04:02;;;;;;;31.15;16.40;;;;;;;;;;4357240;32;20194;-75
2021/08/31 01:06:27;;;;;;;34.45;16.90;;;;;;;;;;4357604;32;20163;-75
2021/08/31 01:08:53;;;;;;;28.67;16.00;;;;;;;;;;4357261;32;20186;-75
2021/08/31 01:11:19;;;;;;;25.17;15.80;;;;;;;;;;4357439;32;20160;-76
2021/08/31 01:13:44;;;;;;;31.48;15.73;;;;;;;;;;4357053;33;20167;-75
2021/08/31 01:16:09;;;;;;;30.55;16.95;;;;;;;;;;4345079;33;20159;-75
2021/08/31 01:18:37;;;;;;;31.15;17.15;;;;;;;;;;4357757;32;20226;-76
2021/08/31 01:21:02;;;;;;;27.60;14.60;;;;;;;;;;4357678;32;20194;-75
2021/08/31 01:23:28;;;;;;;28.05;16.30;;;;;;;;;;4344832;33;20260;-75
2021/08/31 01:25:54;;;;;;;29.73;17.33;;;;;;;;;;4345111;33;20179;-75
2021/08/31 01:28:23;;;;;;;33.40;18.00;;;;;;;;;;4357008;32;20159;-75
2021/08/31 01:30:49;;;;;;;32.22;16.20;;;;;;;;;;4344538;33;20241;-75
2021/08/31 01:33:15;;;;;;;34.78;16.52;;;;;;;;;;4356193;32;20608;-75
2021/08/31 01:35:40;;;;;;;31.75;16.73;;;;;;;;;;4357528;32;20235;-75
2021/08/31 01:38:06;;;;;;;32.72;16.25;;;;;;;;;;4357085;32;20488;-76
2021/08/31 01:40:31;;;;;;;31.00;18.08;;;;;;;;;;4356828;32;20222;-77
2021/08/31 01:42:57;;;;;;;31.55;15.93;;;;;;;;;;4357249;33;20155;-77
2021/08/31 01:45:22;;;;;;;33.17;17.05;;;;;;;;;;4356883;32;20171;-76
2021/08/31 01:47:50;;;;;;;31.37;17.50;;;;;;;;;;4344815;33;20160;-77
2021/08/31 01:50:15;;;;;;;32.65;16.33;;;;;;;;;;4356818;32;20206;-77
2021/08/31 01:52:41;;;;;;;40.60;18.45;;;;;;;;;;4344214;33;20225;-77
2021/08/31 01:55:06;;;;;;;35.75;16.77;;;;;;;;;;4357068;33;20159;-77
2021/08/31 01:57:32;;;;;;;34.10;17.58;;;;;;;;;;4344274;33;20226;-77
2021/08/31 01:59:57;;;;;;;29.50;15.45;;;;;;;;;;4345879;33;20467;-77
2021/08/31 02:02:23;;;;;;;33.70;16.35;;;;;;;;;;4356507;33;20163;-77
2021/08/31 02:04:49;;;;;;;36.65;19.12;;;;;;;;;;4356569;32;20205;-77
2021/08/31 02:07:17;;;;;;;34.42;17.08;;;;;;;;;;4356824;32;20453;-77
2021/08/31 02:09:59;;;;;;;28.35;16.20;;;;;;;;;;4356569;33;20159;-77
2021/08/31 02:12:25;;;;;;;33.65;17.75;;;;;;;;;;4357077;32;20213;-77
2021/08/31 02:14:50;;;;;;;29.70;16.90;;;;;;;;;;4344058;33;20175;-76
2021/08/31 02:17:16;;;;;;;29.98;16.12;;;;;;;;;;4356478;33;20167;-77
2021/08/31 02:19:41;;;;;;;28.87;16.35;;;;;;;;;;4356266;33;20170;-77
2021/08/31 02:22:07;;;;;;;27.92;15.98;;;;;;;;;;4344132;33;20210;-77
2021/08/31 02:24:32;;;;;;;31.08;16.17;;;;;;;;;;4356563;33;20272;-77
2021/08/31 02:26:57;;;;;;;29.37;16.50;;;;;;;;;;4345571;33;20151;-77
2021/08/31 02:29:25;;;;;;;28.65;16.50;;;;;;;;;;4356539;33;20527;-76
2021/08/31 02:31:50;;;;;;;31.37;16.40;;;;;;;;;;4356176;33;20159;-77
2021/08/31 02:34:16;;;;;;;32.38;16.67;;;;;;;;;;4356403;33;20485;-76
2021/08/31 02:36:41;;;;;;;31.67;15.90;;;;;;;;;;4356973;33;20190;-76
2021/08/31 02:39:06;;;;;;;28.48;16.08;;;;;;;;;;4357310;33;20202;-76
2021/08/31 02:41:32;;;;;;;24.98;16.12;;;;;;;;;;4356349;33;20167;-76
2021/08/31 02:43:57;;;;;;;26.05;14.95;;;;;;;;;;4343844;33;20223;-76
2021/08/31 02:46:30;;;;;;;30.12;15.93;;;;;;;;;;4346488;33;20186;-76
2021/08/31 02:49:00;;;;;;;29.85;16.42;;;;;;;;;;4359263;33;20268;-77
2021/08/31 02:51:26;;;;;;;28.87;15.65;;;;;;;;;;4359262;33;20668;-76
2021/08/31 02:53:51;;;;;;;29.30;15.85;;;;;;;;;;4359848;32;20202;-76
2021/08/31 02:56:19;;;;;;;36.72;18.05;;;;;;;;;;4359080;33;20171;-76
2021/08/31 02:58:45;;;;;;;32.17;17.40;;;;;;;;;;4359734;32;20190;-77
2021/08/31 03:01:32;;;;;;;29.58;17.75;;;;;;;;;;4359343;33;20167;-76
2021/08/31 03:03:57;;;;;;;25.83;15.23;;;;;;;;;;4348917;33;20197;-76
2021/08/31 03:06:29;;;;;;;34.15;17.23;;;;;;;;;;4347074;33;20167;-76
2021/08/31 03:08:55;;;;;;;36.05;16.30;;;;;;;;;;4359072;33;20479;-76
2021/08/31 03:11:20;;;;;;;30.75;17.12;;;;;;;;;;4358971;32;20179;-76
2021/08/31 03:13:48;;;;;;;31.85;15.93;;;;;;;;;;4358903;32;20277;-76
2021/08/31 03:16:14;;;;;;;33.67;15.95;;;;;;;;;;4359218;32;20182;-76
2021/08/31 03:18:39;;;;;;;34.67;17.17;;;;;;;;;;4358785;32;20555;-77
2021/08/31 03:21:05;;;;;;;31.35;16.08;;;;;;;;;;4346334;33;20241;-76
2021/08/31 03:23:45;;;;;;;;;;;;;;;;;;;;;
2021/08/31 03:26:11;;;;;;;27.08;15.00;;;;;;;;;;4348465;33;20175;-76
2021/08/31 03:28:37;;;;;;;24.58;15.15;;;;;;;;;;4358988;32;20152;-76
2021/08/31 03:31:25;;;;;;;32.85;17.45;;;;;;;;;;4345849;33;20147;-76
2021/08/31 03:33:59;;;;;;;27.13;14.13;;;;;;;;;;4347533;33;20242;-76
2021/08/31 03:36:27;;;;;;;30.30;15.88;;;;;;;;;;4359897;32;20298;-76
2021/08/31 03:38:53;;;;;;;31.48;15.45;;;;;;;;;;4346495;33;20170;-77
2021/08/31 03:41:18;;;;;;;31.05;14.77;;;;;;;;;;4346545;33;20151;-76
2021/08/31 03:43:44;;;;;;;26.12;14.75;;;;;;;;;;4346444;33;20210;-76
2021/08/31 03:46:12;;;;;;;27.98;14.90;;;;;;;;;;4346557;33;20178;-77
2021/08/31 03:48:37;;;;;;;35.50;17.12;;;;;;;;;;4346241;33;20186;-78
2021/08/31 03:51:06;;;;;;;26.25;15.18;;;;;;;;;;4336172;33;20155;-77
2021/08/31 03:53:34;;;;;;;27.92;14.98;;;;;;;;;;4331222;33;20149;-77
2021/08/31 03:56:08;;;;;;;31.73;16.00;;;;;;;;;;4330995;33;20171;-77
2021/08/31 03:58:37;;;;;;;25.60;14.35;;;;;;;;;;4332621;33;20149;-77
2021/08/31 04:01:11;;;;;;;22.67;13.25;;;;;;;;;;4331154;33;20159;-77
2021/08/31 04:03:46;;;;;;;35.08;16.73;;;;;;;;;;4343244;33;20163;-77
2021/08/31 04:06:14;;;;;;;27.33;14.13;;;;;;;;;;4331177;33;20147;-75
2021/08/31 04:08:42;;;;;;;30.25;13.77;;;;;;;;;;4331018;33;20206;-77
2021/08/31 04:11:17;;;;;;;24.15;12.60;;;;;;;;;;4331360;33;20161;-77
2021/08/31 04:13:56;;;;;;;26.62;14.02;;;;;;;;;;4330907;33;20455;-76
2021/08/31 04:16:23;;;;;;;25.45;14.23;;;;;;;;;;4331745;33;20148;-77
2021/08/31 04:18:58;;;;;;;30.88;13.73;;;;;;;;;;4330933;33;20155;-77
2021/08/31 04:21:24;;;;;;;24.75;12.70;;;;;;;;;;4330596;33;20167;-76
2021/08/31 04:24:01;;;;;;;22.58;13.05;;;;;;;;;;4342958;33;20167;-77
2021/08/31 04:26:49;;;;;;;27.02;13.07;;;;;;;;;;4330425;33;20221;-76
2021/08/31 04:29:25;;;;;;;29.00;13.70;;;;;;;;;;4330808;33;20178;-76
2021/08/31 04:31:50;;;;;;;26.42;13.20;;;;;;;;;;4330979;33;20578;-76
2021/08/31 04:34:15;;;;;;;30.62;15.20;;;;;;;;;;4330644;33;20214;-75
2021/08/31 04:36:43;;;;;;;27.98;13.02;;;;;;;;;;4330671;33;20168;-76
2021/08/31 04:39:23;;;;;;;26.60;13.38;;;;;;;;;;4342621;33;20214;-75
2021/08/31 04:41:50;;;;;;;28.70;13.38;;;;;;;;;;4331697;33;20163;-76
2021/08/31 04:44:15;;;;;;;35.92;15.10;;;;;;;;;;4342844;33;20226;-76
2021/08/31 04:46:43;;;;;;;28.77;15.20;;;;;;;;;;4330419;33;20575;-75
2021/08/31 04:49:08;;;;;;;26.17;14.18;;;;;;;;;;4330762;33;20190;-75
2021/08/31 04:51:34;;;;;;;27.27;15.32;;;;;;;;;;4331452;33;20139;-75
2021/08/31 04:54:02;;;;;;;30.33;12.73;;;;;;;;;;4342829;33;20597;-77
2021/08/31 04:56:27;;;;;;;33.15;15.15;;;;;;;;;;4330280;33;20168;-75
2021/08/31 04:59:14;;;;;;;25.55;13.48;;;;;;;;;;4330617;33;20485;-75
2021/08/31 05:01:40;;;;;;;26.25;11.93;;;;;;;;;;4330632;33;20196;-75
2021/08/31 05:04:05;;;;;;;30.62;14.35;;;;;;;;;;4330545;33;20634;-77
2021/08/31 05:06:31;;;;;;;31.40;13.65;;;;;;;;;;4330571;33;20654;-76
2021/08/31 05:09:02;;;;;;;29.92;13.80;;;;;;;;;;4330265;33;20202;-76
2021/08/31 05:11:27;;;;;;;29.65;14.82;;;;;;;;;;4330618;33;20182;-76
2021/08/31 05:13:52;;;;;;;27.65;13.32;;;;;;;;;;4329993;33;20505;-75
2021/08/31 05:16:25;;;;;;;26.70;12.45;;;;;;;;;;4342238;33;20218;-75
2021/08/31 05:18:57;;;;;;;25.20;12.45;;;;;;;;;;4331107;33;20168;-76
2021/08/31 05:21:22;;;;;;;24.87;13.35;;;;;;;;;;4330068;33;20210;-76
2021/08/31 05:24:09;;;;;;;25.73;12.88;;;;;;;;;;4329870;33;20183;-77
2021/08/31 05:26:42;;;;;;;22.37;12.18;;;;;;;;;;4331186;33;20504;-75
2021/08/31 05:29:07;;;;;;;33.50;14.32;;;;;;;;;;4330801;33;20152;-74
2021/08/31 05:31:35;;;;;;;28.48;13.02;;;;;;;;;;4330041;33;20248;-75
2021/08/31 05:34:08;;;;;;;29.10;13.00;;;;;;;;;;4329783;33;20223;-75
2021/08/31 05:36:34;;;;;;;22.00;11.23;;;;;;;;;;4330247;33;20175;-75
2021/08/31 05:38:59;;;;;;;21.58;10.40;;;;;;;;;;4329703;33;20494;-76
2021/08/31 05:41:35;;;;;;;29.15;13.13;;;;;;;;;;4329720;33;20167;-76
2021/08/31 05:44:00;;;;;;;26.80;12.35;;;;;;;;;;4329820;33;20186;-75
2021/08/31 05:46:32;;;;;;;22.75;11.07;;;;;;;;;;4329502;33;20199;-76
2021/08/31 05:48:58;;;;;;;23.62;11.55;;;;;;;;;;4329668;33;20275;-77
2021/08/31 05:54:37;;;;;;;24.52;11.77;;;;;;;;;;4322506;33;20183;-76
2021/08/31 05:57:06;;;;;;;24.20;10.45;;;;;;;;;;4326673;33;20171;-76
2021/08/31 05:59:32;;;;;;;20.80;10.90;;;;;;;;;;4329775;33;20227;-78
2021/08/31 06:01:57;;;;;;;24.73;11.15;;;;;;;;;;4346619;33;20214;-76
2021/08/31 06:04:25;;;;;;;20.27;10.85;;;;;;;;;;4344030;33;20525;-71
2021/08/31 06:06:50;;;;;;;22.45;9.80;;;;;;;;;;4345776;33;20139;-78
2021/08/31 06:09:16;;;;;;;18.95;9.88;;;;;;;;;;4345093;33;20143;-74
2021/08/31 06:11:44;;;;;;;24.80;10.93;;;;;;;;;;4344979;33;20481;-75
2021/08/31 06:14:09;;;;;;;23.90;9.82;;;;;;;;;;4344659;33;20143;-75
2021/08/31 06:16:37;;;;;;;16.55;8.95;;;;;;;;;;4355668;33;20187;-77
2021/08/31 06:19:05;;;;;;;21.25;9.13;;;;;;;;;;4356891;33;20209;-75
2021/08/31 06:21:31;;;;;;;19.73;9.57;;;;;;;;;;4346146;33;20163;-75
2021/08/31 06:23:56;;;;;;;21.27;8.82;;;;;;;;;;4334045;33;20582;-76
2021/08/31 06:26:22;;;;;;;19.48;8.48;;;;;;;;;;4334035;33;20152;-75
2021/08/31 06:28:47;;;;;;;24.83;9.68;;;;;;;;;;4345227;33;20585;-74
2021/08/31 06:31:13;;;;;;;22.98;9.00;;;;;;;;;;4325848;33;20189;-76
2021/08/31 06:33:38;;;;;;;26.33;9.05;;;;;;;;;;4339110;33;20182;-75
2021/08/31 06:36:04;;;;;;;23.80;9.77;;;;;;;;;;4337980;33;20156;-76
2021/08/31 06:38:29;;;;;;;23.10;8.48;;;;;;;;;;4340874;33;20186;-76
2021/08/31 06:40:57;;;;;;;17.60;7.82;;;;;;;;;;4333882;33;20655;-75
2021/08/31 06:43:26;;;;;;;21.08;8.88;;;;;;;;;;4337027;33;20218;-76
2021/08/31 06:45:57;;;;;;;18.42;8.40;;;;;;;;;;4349255;33;20202;-76
2021/08/31 06:48:22;;;;;;;17.77;7.37;;;;;;;;;;4341933;33;20164;-73
2021/08/31 06:50:56;;;;;;;19.77;8.07;;;;;;;;;;4346013;33;20457;-76
2021/08/31 06:53:24;;;;;;;21.23;8.60;;;;;;;;;;4346519;33;20209;-76
2021/08/31 06:55:52;;;;;;;25.27;8.40;;;;;;;;;;4333683;33;20152;-76
2021/08/31 06:58:18;;;;;;;18.42;7.50;;;;;;;;;;4345980;33;20175;-77
2021/08/31 07:00:43;;;;;;;17.48;7.75;;;;;;;;;;4346154;33;20503;-75
2021/08/31 07:03:09;;;;;;;15.45;7.20;;;;;;;;;;4356545;33;20155;-75
2021/08/31 07:05:34;;;;;;;16.55;7.30;;;;;;;;;;4341006;33;20209;-75
2021/08/31 07:08:05;;;;;;;20.92;7.68;;;;;;;;;;4339975;33;20581;-75
2021/08/31 07:10:36;;;;;;;19.42;7.20;;;;;;;;;;4342870;33;20193;-75
2021/08/31 07:13:13;;;;;;;20.17;7.32;;;;;;;;;;4349210;33;20264;-75
2021/08/31 07:15:38;;;;;;;14.02;6.82;;;;;;;;;;4336215;33;20621;-75
2021/08/31 07:18:06;;;;;;;19.10;7.07;;;;;;;;;;4325581;33;20182;-77
2021/08/31 07:20:34;;;;;;;15.70;6.62;;;;;;;;;;4318194;33;20171;-75
2021/08/31 07:22:59;;;;;;;17.33;6.50;;;;;;;;;;4336472;33;20155;-75
2021/08/31 07:25:25;;;;;;;13.57;5.90;;;;;;;;;;4336332;33;20247;-76
2021/08/31 07:27:50;;;;;;;15.80;6.12;;;;;;;;;;4336529;33;20320;-75
2021/08/31 07:30:19;;;;;;;18.45;6.22;;;;;;;;;;4352847;32;20583;-74
2021/08/31 07:33:14;;;;;;;21.45;6.32;;;;;;;;;;4362803;32;20173;-74
2021/08/31 07:35:41;;;;;;;17.33;5.70;;;;;;;;;;4357680;33;20159;-75
2021/08/31 07:38:06;;;;;;;15.70;6.00;;;;;;;;;;4348300;33;20467;-74
2021/08/31 07:40:41;;;;;;;12.60;5.47;;;;;;;;;;4362093;32;20135;-75
2021/08/31 07:43:06;;;;;;;19.37;5.82;;;;;;;;;;4349034;32;20197;-75
2021/08/31 07:45:32;;;;;;;15.23;5.82;;;;;;;;;;4348326;33;20159;-75
2021/08/31 07:47:57;;;;;;;12.37;5.37;;;;;;;;;;4362179;32;20127;-77
2021/08/31 07:50:23;;;;;;;12.32;5.30;;;;;;;;;;4361849;32;20216;-76
2021/08/31 07:52:48;;;;;;;14.38;5.75;;;;;;;;;;4361988;32;20205;-75
2021/08/31 07:55:17;;;;;;;15.02;5.20;;;;;;;;;;4361374;32;20143;-73
2021/08/31 07:57:46;;;;;;;13.48;4.40;;;;;;;;;;4360373;33;20631;-75
2021/08/31 08:00:13;;;;;;;15.18;5.40;;;;;;;;;;4361762;32;20142;-76
2021/08/31 08:02:39;;;;;;;16.10;5.65;;;;;;;;;;4348971;33;20588;-75
2021/08/31 08:05:07;;;;;;;14.95;5.37;;;;;;;;;;4347966;33;20159;-75
2021/08/31 08:07:35;;;;;;;19.67;5.90;;;;;;;;;;4361708;32;20461;-76
2021/08/31 08:10:00;;;;;;;15.38;5.40;;;;;;;;;;4347776;33;20228;-75
2021/08/31 08:12:28;;;;;;;14.10;5.57;;;;;;;;;;4362138;32;20159;-75
2021/08/31 08:14:56;;;;;;;15.07;4.87;;;;;;;;;;4357476;32;20183;-75
2021/08/31 08:17:31;;;;;;;13.02;5.22;;;;;;;;;;4333220;33;20193;-74
2021/08/31 08:19:56;;;;;;;14.55;5.30;;;;;;;;;;4350637;33;20693;-73
2021/08/31 08:22:22;;;;;;;16.60;5.07;;;;;;;;;;4337457;32;20193;-75
2021/08/31 08:24:48;;;;;;;14.70;5.60;;;;;;;;;;4346772;33;20221;-76
2021/08/31 08:27:16;;;;;;;16.48;5.60;;;;;;;;;;4338477;33;20356;-75
2021/08/31 08:29:44;;;;;;;15.68;5.93;;;;;;;;;;4345253;33;20427;-77
2021/08/31 08:32:13;;;;;;;12.90;5.62;;;;;;;;;;4357146;32;20186;-77
2021/08/31 08:37:25;;;;;;;12.35;5.18;;;;;;;;;;4354141;33;20178;-77
2021/08/31 08:39:50;;;;;;;15.80;5.55;;;;;;;;;;4341897;33;20596;-77
2021/08/31 08:42:25;;;;;;;;;;;;;;;;;;;;;
2021/08/31 08:44:51;;;;;;;17.33;4.97;;;;;;;;;;4357586;32;20162;-77
2021/08/31 08:47:20;;;;;;;14.02;5.43;;;;;;;;;;4357469;32;20135;-76
2021/08/31 08:49:49;;;;;;;13.23;5.35;;;;;;;;;;4345157;33;20197;-76
2021/08/31 08:52:14;;;;;;;16.15;5.32;;;;;;;;;;4345659;33;20164;-76
2021/08/31 08:54:42;;;;;;;12.48;5.00;;;;;;;;;;4345648;33;20197;-75
2021/08/31 08:57:08;;;;;;;14.93;5.65;;;;;;;;;;4354340;32;20159;-75
2021/08/31 08:59:33;;;;;;;14.52;6.00;;;;;;;;;;4359099;32;20507;-75
2021/08/31 09:01:59;;;;;;;15.43;6.10;;;;;;;;;;4359490;32;20182;-75
2021/08/31 09:04:45;;;;;;;19.48;7.03;;;;;;;;;;4359350;32;20520;-76
2021/08/31 09:07:24;;;;;;;16.12;5.75;;;;;;;;;;4348035;32;20225;-76
2021/08/31 09:10:08;;;;;;;16.35;5.90;;;;;;;;;;4335157;33;20532;-76
2021/08/31 09:12:37;;;;;;;13.60;5.55;;;;;;;;;;4338262;33;20193;-74
2021/08/31 09:15:30;;;;;;;12.20;5.50;;;;;;;;;;4345042;33;20210;-75
2021/08/31 09:18:08;;;;;;;12.93;5.07;;;;;;;;;;4360606;32;20179;-74
2021/08/31 09:20:58;;;;;;;13.18;5.10;;;;;;;;;;4353727;32;20158;-76
2021/08/31 09:24:11;;;;;;;12.63;4.85;;;;;;;;;;4346517;33;20159;-75
2021/08/31 09:26:34;;;;;;;9.93;4.78;;;;;;;;;;4335625;33;20202;-75
2021/08/31 09:29:53;;;;;;;15.00;5.55;;;;;;;;;;4344920;33;20608;-75
2021/08/31 09:32:18;;;;;;;10.25;4.62;;;;;;;;;;4305256;33;20175;-76
2021/08/31 09:34:49;;;;;;;16.62;5.40;;;;;;;;;;4317984;33;20501;-74
2021/08/31 09:37:49;;;;;;;14.65;5.25;;;;;;;;;;4346740;33;20163;-75
2021/08/31 09:40:18;;;;;;;12.15;5.00;;;;;;;;;;4327851;33;20509;-74
2021/08/31 09:43:01;;;;;;;12.57;5.40;;;;;;;;;;4347523;33;20159;-75
2021/08/31 09:45:59;;;;;;;12.63;4.40;;;;;;;;;;4333336;33;20631;-71
2021/08/31 09:48:27;;;;;;;10.68;4.85;;;;;;;;;;4356599;33;20234;-76
2021/08/31 09:50:53;;;;;;;11.20;4.70;;;;;;;;;;4344947;33;20181;-75
2021/08/31 09:53:19;;;;;;;11.85;4.80;;;;;;;;;;4344298;33;20561;-75
2021/08/31 09:55:46;;;;;;;10.57;4.65;;;;;;;;;;4344684;33;20132;-75
2021/08/31 09:58:14;;;;;;;12.23;4.97;;;;;;;;;;4331572;33;20601;-75
2021/08/31 10:00:40;;;;;;;12.70;5.35;;;;;;;;;;4357161;32;20953;-74
2021/08/31 10:03:06;;;;;;;12.05;4.95;;;;;;;;;;4358579;32;20178;-75
2021/08/31 10:05:32;;;;;;;13.43;5.40;;;;;;;;;;4350564;33;20190;-73
2021/08/31 10:07:58;;;;;;;13.05;5.68;;;;;;;;;;4354260;32;20179;-75
2021/08/31 10:10:27;;;;;;;9.20;5.30;;;;;;;;;;4342202;33;20718;-76
2021/08/31 10:12:56;;;;;;;12.57;5.00;;;;;;;;;;4339296;33;20633;-74
2021/08/31 10:15:23;;;;;;;12.37;5.28;;;;;;;;;;4357362;33;20615;-76
2021/08/31 10:18:02;;;;;;;;;;;;;;;;;;;;;
2021/08/31 10:20:34;;;;;;;14.40;5.10;;;;;;;;;;4296316;33;20160;-74
2021/08/31 10:23:04;;;;;;;13.15;4.82;;;;;;;;;;4341636;33;20581;-75
2021/08/31 10:25:29;;;;;;;10.80;5.03;;;;;;;;;;4345752;33;20302;-75
2021/08/31 10:28:15;;;;;;;9.93;4.90;;;;;;;;;;4351558;33;20149;-76
2021/08/31 10:30:45;;;;;;;14.38;5.40;;;;;;;;;;4335059;33;20194;-76
2021/08/31 10:33:33;;;;;;;11.55;4.50;;;;;;;;;;4336043;33;20217;-75
2021/08/31 10:35:59;;;;;;;10.40;4.62;;;;;;;;;;4346809;33;20642;-74
2021/08/31 10:38:59;;;;;;;12.93;5.12;;;;;;;;;;4340608;32;20156;-77
2021/08/31 10:41:54;;;;;;;12.95;5.15;;;;;;;;;;4337368;33;20207;-76
2021/08/31 10:44:36;;;;;;;12.70;5.25;;;;;;;;;;4355566;33;20181;-76
2021/08/31 10:47:02;;;;;;;13.02;5.50;;;;;;;;;;4336011;33;20163;-75
2021/08/31 10:49:28;;;;;;;10.43;5.32;;;;;;;;;;4346208;33;20156;-75
2021/08/31 10:52:02;;;;;;;13.15;5.28;;;;;;;;;;4345864;33;20223;-75
2021/08/31 10:54:43;;;;;;;14.50;5.22;;;;;;;;;;4357884;32;20234;-75
2021/08/31 10:57:27;;;;;;;11.23;5.20;;;;;;;;;;4345167;33;20177;-76
2021/08/31 10:59:52;;;;;;;13.38;5.15;;;;;;;;;;4357110;32;20143;-77
2021/08/31 11:02:36;;;;;;;12.43;5.45;;;;;;;;;;4337255;33;20155;-75
2021/08/31 11:05:20;;;;;;;13.13;5.50;;;;;;;;;;4346512;33;20545;-76
2021/08/31 11:07:46;;;;;;;12.75;4.85;;;;;;;;;;4334624;33;20488;-70
2021/08/31 11:10:18;;;;;;;9.05;4.40;;;;;;;;;;4361394;32;20155;-77
2021/08/31 11:12:44;;;;;;;9.57;4.90;;;;;;;;;;4348814;33;20177;-76
2021/08/31 11:15:20;;;;;;;11.77;4.68;;;;;;;;;;4362602;32;20150;-74
2021/08/31 11:17:47;;;;;;;11.85;4.78;;;;;;;;;;4349339;33;20170;-76
2021/08/31 11:20:37;;;;;;;11.82;4.50;;;;;;;;;;4351694;32;20179;-76
2021/08/31 11:23:02;;;;;;;11.40;4.70;;;;;;;;;;4355857;32;20201;-76
2021/08/31 11:25:31;;;;;;;7.70;4.15;;;;;;;;;;4360644;32;20183;-77
2021/08/31 11:28:24;;;;;;;13.68;4.90;;;;;;;;;;4356183;32;20241;-77
2021/08/31 11:31:13;;;;;;;12.75;5.10;;;;;;;;;;4346151;33;20197;-76
2021/08/31 11:33:42;;;;;;;10.35;4.10;;;;;;;;;;4346872;33;20671;-76
2021/08/31 11:36:08;;;;;;;9.70;4.37;;;;;;;;;;4346524;33;20573;-77
2021/08/31 11:38:56;;;;;;;8.25;4.10;;;;;;;;;;4345843;33;20234;-76
2021/08/31 11:41:35;;;;;;;9.40;4.32;;;;;;;;;;4345633;33;20186;-75
2021/08/31 11:44:04;;;;;;;8.30;3.72;;;;;;;;;;4345689;33;20171;-76
2021/08/31 11:46:46;;;;;;;10.40;4.57;;;;;;;;;;4369372;32;20608;-75
2021/08/31 11:49:20;;;;;;;9.48;4.30;;;;;;;;;;4375631;32;20167;-77
2021/08/31 11:52:04;;;;;;;11.52;4.47;;;;;;;;;;4375533;32;20546;-77
2021/08/31 11:54:31;;;;;;;10.68;4.93;;;;;;;;;;4371714;32;20174;-76
2021/08/31 11:56:58;;;;;;;9.57;4.68;;;;;;;;;;4333600;33;20640;-75
2021/08/31 11:59:38;;;;;;;12.18;4.55;;;;;;;;;;4350891;33;20190;-77
2021/08/31 12:02:16;;;;;;;12.07;4.10;;;;;;;;;;4352271;32;20219;-78
2021/08/31 12:08:08;;;;;;;9.85;4.03;;;;;;;;;;4297295;33;20164;-77
2021/08/31 12:10:36;;;;;;;8.65;4.05;;;;;;;;;;4350145;33;20567;-77
2021/08/31 12:13:02;;;;;;;12.40;4.32;;;;;;;;;;4355151;33;20174;-76
2021/08/31 12:15:35;;;;;;;12.20;4.62;;;;;;;;;;4359984;33;20163;-77
2021/08/31 12:18:02;;;;;;;10.30;4.35;;;;;;;;;;4348068;32;20172;-77
2021/08/31 12:20:29;;;;;;;12.23;4.30;;;;;;;;;;4345722;33;20171;-77
2021/08/31 12:23:01;;;;;;;9.98;4.28;;;;;;;;;;4333503;33;20179;-77
2021/08/31 12:25:26;;;;;;;11.10;4.47;;;;;;;;;;4343680;33;20198;-76
2021/08/31 12:28:02;;;;;;;9.98;4.30;;;;;;;;;;4336335;33;20704;-78
2021/08/31 12:30:37;;;;;;;10.18;4.20;;;;;;;;;;4359994;33;20174;-78
2021/08/31 12:33:03;;;;;;;10.95;4.18;;;;;;;;;;4346769;32;20248;-78
2021/08/31 12:35:34;;;;;;;10.55;4.15;;;;;;;;;;4359372;32;20171;-77
2021/08/31 12:38:19;;;;;;;10.43;3.75;;;;;;;;;;4364326;32;20170;-75
2021/08/31 12:41:21;;;;;;;9.73;4.12;;;;;;;;;;4361818;32;20175;-77
2021/08/31 12:43:51;;;;;;;13.15;4.40;;;;;;;;;;4344826;33;20202;-77
2021/08/31 12:46:22;;;;;;;7.43;3.70;;;;;;;;;;4335683;33;20199;-76
2021/08/31 12:48:59;;;;;;;6.60;3.85;;;;;;;;;;4345405;33;20585;-77
2021/08/31 12:51:51;;;;;;;9.07;3.95;;;;;;;;;;4347855;33;20208;-77
2021/08/31 12:54:48;;;;;;;;;;;;;;;;;;;;;
2021/08/31 12:57:22;;;;;;;9.18;4.12;;;;;;;;;;4357513;33;20140;-77
2021/08/31 12:59:50;;;;;;;8.23;3.78;;;;;;;;;;4348067;33;20572;-76
2021/08/31 13:02:21;;;;;;;9.98;4.00;;;;;;;;;;4346788;33;20159;-77
2021/08/31 13:05:08;;;;;;;10.38;4.35;;;;;;;;;;4336620;33;20210;-78
2021/08/31 13:07:55;;;;;;;;;;;;;;;;;;;;;
2021/08/31 13:10:20;;;;;;;10.85;4.50;;;;;;;;;;4360997;32;20491;-78
2021/08/31 13:12:52;;;;;;;12.37;3.70;;;;;;;;;;4359569;33;20194;-78
2021/08/31 13:15:33;;;;;;;10.55;3.83;;;;;;;;;;4349851;33;20229;-75
2021/08/31 13:17:58;;;;;;;8.20;3.78;;;;;;;;;;4360083;32;20155;-77
2021/08/31 13:20:27;;;;;;;9.35;3.90;;;;;;;;;;4359163;32;20602;-78
2021/08/31 13:22:52;;;;;;;7.97;4.00;;;;;;;;;;4354051;32;20167;-77
2021/08/31 13:25:18;;;;;;;8.77;3.83;;;;;;;;;;4354651;32;20186;-77
2021/08/31 13:28:01;;;;;;;11.70;4.18;;;;;;;;;;4332426;33;20168;-80
2021/08/31 13:30:39;;;;;;;12.68;4.15;;;;;;;;;;4346976;33;20190;-78
2021/08/31 13:33:08;;;;;;;11.50;4.12;;;;;;;;;;4359500;32;20163;-78
2021/08/31 13:36:28;;;;;;;11.63;3.78;;;;;;;;;;4359308;32;20500;-78
2021/08/31 13:38:35;;;;;;;12.02;3.87;;;;;;;;;;4348533;33;20277;-78
2021/08/31 13:41:00;;;;;;;11.23;3.75;;;;;;;;;;4346600;33;20151;-78
2021/08/31 13:43:37;;;;;;;10.90;4.05;;;;;;;;;;4359997;32;20226;-77
2021/08/31 13:46:03;;;;;;;9.02;3.60;;;;;;;;;;4360668;32;20135;-78
2021/08/31 13:48:29;;;;;;;12.05;3.83;;;;;;;;;;4359323;32;20246;-78
2021/08/31 13:51:02;;;;;;;13.02;4.20;;;;;;;;;;4347050;33;20163;-79
2021/08/31 13:56:25;;;;;;;10.95;4.20;;;;;;;;;;4360627;32;20147;-77
2021/08/31 13:59:11;;;;;;;10.35;3.53;;;;;;;;;;4355657;33;20508;-78
2021/08/31 14:01:36;;;;;;;9.32;3.67;;;;;;;;;;4359094;33;20190;-77
2021/08/31 14:04:30;;;;;;;9.68;3.60;;;;;;;;;;4358988;32;20178;-78
2021/08/31 14:06:55;;;;;;;10.05;3.50;;;;;;;;;;4359849;32;20156;-77
2021/08/31 14:09:20;;;;;;;10.10;3.87;;;;;;;;;;4358899;32;20194;-79
2021/08/31 14:11:58;;;;;;;9.40;3.47;;;;;;;;;;4358733;33;20186;-78
2021/08/31 14:14:32;;;;;;;10.32;3.15;;;;;;;;;;4333859;32;20278;-78
2021/08/31 14:17:11;;;;;;;7.82;3.15;;;;;;;;;;4341487;33;20170;-78
2021/08/31 14:19:58;;;;;;;7.78;3.12;;;;;;;;;;4353283;33;20265;-78
2021/08/31 14:22:48;;;;;;;10.20;3.65;;;;;;;;;;4329162;33;20229;-78
2021/08/31 14:25:13;;;;;;;11.43;3.55;;;;;;;;;;4329492;33;20160;-77
2021/08/31 14:27:55;;;;;;;10.88;3.47;;;;;;;;;;4316735;33;20182;-78
2021/08/31 14:30:21;;;;;;;7.43;3.25;;;;;;;;;;4316565;33;20467;-79
2021/08/31 14:32:46;;;;;;;10.02;3.30;;;;;;;;;;4324449;33;20812;-78
2021/08/31 14:35:12;;;;;;;10.85;3.50;;;;;;;;;;4301678;33;20156;-77
2021/08/31 14:38:11;;;;;;;12.75;3.75;;;;;;;;;;4302204;33;20164;-78
2021/08/31 14:40:40;;;;;;;10.27;3.20;;;;;;;;;;4304935;33;20230;-77
2021/08/31 14:43:13;;;;;;;6.50;3.12;;;;;;;;;;4319662;33;20199;-78
2021/08/31 14:45:38;;;;;;;8.73;3.28;;;;;;;;;;4326291;33;20206;-78
2021/08/31 14:48:07;;;;;;;7.75;3.17;;;;;;;;;;4339871;33;20176;-77
2021/08/31 14:50:32;;;;;;;10.98;3.97;;;;;;;;;;4334660;33;20179;-79
2021/08/31 14:52:57;;;;;;;10.80;3.72;;;;;;;;;;4329910;33;20182;-77
2021/08/31 14:55:23;;;;;;;9.03;3.40;;;;;;;;;;4319793;33;20238;-77
2021/08/31 14:57:50;;;;;;;11.82;3.40;;;;;;;;;;4316635;33;20707;-78
2021/08/31 15:00:21;;;;;;;10.90;4.07;;;;;;;;;;4316505;33;20231;-77
2021/08/31 15:02:46;;;;;;;10.02;3.95;;;;;;;;;;4304429;33;20283;-79